sensor_id;sensor_type;location;lat;lon;timestamp;temperature;humidity
7972;DHT22;4031;49.758;6.120;2023-03-01T00:01:15;-4.60;99.90
7972;DHT22;4031;49.758;6.120;2023-03-01T00:03:46;-4.70;99.90
7972;DHT22;4031;49.758;6.120;2023-03-01T00:06:12;-4.70;99.90
7972;DHT22;4031;49.758;6.120;2023-03-01T00:08:38;-4.70;99.90
7972;DHT22;4031;49.758;6.120;2023-03-01T00:11:15;-4.70;99.90
7972;DHT22;4031;49.758;6.120;2023-03-01T00:13:44;-4.60;99.90
7972;DHT22;4031;49.758;6.120;2023-03-01T00:16:13;-4.60;99.90
7972;DHT22;4031;49.758;6.120;2023-03-01T00:18:44;-4.50;99.90
7972;DHT22;4031;49.758;6.120;2023-03-01T00:21:10;-4.50;99.90
7972;DHT22;4031;49.758;6.120;2023-03-01T00:23:37;-4.60;99.90
7972;DHT22;4031;49.758;6.120;2023-03-01T00:26:08;-4.50;99.90
7972;DHT22;4031;49.758;6.120;2023-03-01T00:28:37;-4.60;99.90
7972;DHT22;4031;49.758;6.120;2023-03-01T00:31:07;-4.60;99.90
7972;DHT22;4031;49.758;6.120;2023-03-01T00:33:35;-4.60;99.90
7972;DHT22;4031;49.758;6.120;2023-03-01T00:36:01;-4.60;99.90
7972;DHT22;4031;49.758;6.120;2023-03-01T00:38:27;-4.60;99.90
7972;DHT22;4031;49.758;6.120;2023-03-01T00:40:52;-4.70;99.90
7972;DHT22;4031;49.758;6.120;2023-03-01T00:43:18;-4.60;99.90
7972;DHT22;4031;49.758;6.120;2023-03-01T00:45:44;-4.50;99.90
7972;DHT22;4031;49.758;6.120;2023-03-01T00:48:10;-4.50;99.90
7972;DHT22;4031;49.758;6.120;2023-03-01T00:50:36;-4.50;99.90
7972;DHT22;4031;49.758;6.120;2023-03-01T00:53:01;-4.50;99.90
7972;DHT22;4031;49.758;6.120;2023-03-01T00:55:27;-4.50;99.90
7972;DHT22;4031;49.758;6.120;2023-03-01T00:57:53;-4.30;99.90
7972;DHT22;4031;49.758;6.120;2023-03-01T01:00:19;-4.10;99.90
7972;DHT22;4031;49.758;6.120;2023-03-01T01:02:45;-4.00;99.90
7972;DHT22;4031;49.758;6.120;2023-03-01T01:05:13;-4.00;99.90
7972;DHT22;4031;49.758;6.120;2023-03-01T01:07:39;-3.90;99.90
7972;DHT22;4031;49.758;6.120;2023-03-01T01:10:05;-3.90;99.90
7972;DHT22;4031;49.758;6.120;2023-03-01T01:12:32;-3.80;99.90
7972;DHT22;4031;49.758;6.120;2023-03-01T01:14:58;-3.70;99.90
7972;DHT22;4031;49.758;6.120;2023-03-01T01:17:24;-3.70;99.90
7972;DHT22;4031;49.758;6.120;2023-03-01T01:19:50;-3.50;99.90
7972;DHT22;4031;49.758;6.120;2023-03-01T01:22:16;-3.50;99.90
7972;DHT22;4031;49.758;6.120;2023-03-01T01:24:41;-3.40;99.90
7972;DHT22;4031;49.758;6.120;2023-03-01T01:27:07;-3.40;99.90
7972;DHT22;4031;49.758;6.120;2023-03-01T01:29:33;-3.30;99.90
7972;DHT22;4031;49.758;6.120;2023-03-01T01:31:58;-3.40;99.90
7972;DHT22;4031;49.758;6.120;2023-03-01T01:34:24;-3.50;99.90
7972;DHT22;4031;49.758;6.120;2023-03-01T01:36:51;-3.60;99.90
7972;DHT22;4031;49.758;6.120;2023-03-01T01:39:19;-3.80;99.90
7972;DHT22;4031;49.758;6.120;2023-03-01T01:41:46;-3.90;99.90
7972;DHT22;4031;49.758;6.120;2023-03-01T01:49:54;-4.00;99.90
7972;DHT22;4031;49.758;6.120;2023-03-01T01:52:29;-4.00;99.90
7972;DHT22;4031;49.758;6.120;2023-03-01T01:55:04;-4.20;99.90
7972;DHT22;4031;49.758;6.120;2023-03-01T01:57:41;-4.20;99.90
7972;DHT22;4031;49.758;6.120;2023-03-01T02:00:13;-4.30;99.90
7972;DHT22;4031;49.758;6.120;2023-03-01T02:02:55;-4.30;99.90
7972;DHT22;4031;49.758;6.120;2023-03-01T02:05:33;-4.20;99.90
7972;DHT22;4031;49.758;6.120;2023-03-01T02:08:04;-4.20;99.90
7972;DHT22;4031;49.758;6.120;2023-03-01T02:10:32;-4.20;99.90
7972;DHT22;4031;49.758;6.120;2023-03-01T02:13:00;-4.30;99.90
7972;DHT22;4031;49.758;6.120;2023-03-01T02:15:26;-4.30;99.90
7972;DHT22;4031;49.758;6.120;2023-03-01T02:17:53;-4.30;99.90
7972;DHT22;4031;49.758;6.120;2023-03-01T02:20:49;-4.40;99.90
7972;DHT22;4031;49.758;6.120;2023-03-01T02:23:20;-4.40;99.90
7972;DHT22;4031;49.758;6.120;2023-03-01T02:26:06;-4.50;99.90
7972;DHT22;4031;49.758;6.120;2023-03-01T02:28:40;-4.50;99.90
7972;DHT22;4031;49.758;6.120;2023-03-01T02:31:08;-4.70;99.90
7972;DHT22;4031;49.758;6.120;2023-03-01T02:33:54;-4.70;99.90
7972;DHT22;4031;49.758;6.120;2023-03-01T02:36:26;-4.70;99.90
7972;DHT22;4031;49.758;6.120;2023-03-01T02:38:58;-4.70;99.90
7972;DHT22;4031;49.758;6.120;2023-03-01T02:41:26;-4.90;99.90
7972;DHT22;4031;49.758;6.120;2023-03-01T02:43:54;-4.90;99.90
7972;DHT22;4031;49.758;6.120;2023-03-01T02:46:23;-5.00;99.90
7972;DHT22;4031;49.758;6.120;2023-03-01T02:54:27;-4.90;99.90
7972;DHT22;4031;49.758;6.120;2023-03-01T02:56:55;-4.90;99.90
7972;DHT22;4031;49.758;6.120;2023-03-01T02:59:23;-5.00;99.90
7972;DHT22;4031;49.758;6.120;2023-03-01T03:01:50;-5.00;99.90
7972;DHT22;4031;49.758;6.120;2023-03-01T03:04:18;-4.90;99.90
7972;DHT22;4031;49.758;6.120;2023-03-01T03:06:47;-4.90;99.90
7972;DHT22;4031;49.758;6.120;2023-03-01T03:09:15;-4.90;99.90
7972;DHT22;4031;49.758;6.120;2023-03-01T03:11:41;-4.80;99.90
7972;DHT22;4031;49.758;6.120;2023-03-01T03:14:12;-4.80;99.90
7972;DHT22;4031;49.758;6.120;2023-03-01T03:16:41;-4.70;99.90
7972;DHT22;4031;49.758;6.120;2023-03-01T03:19:08;-4.70;99.90
7972;DHT22;4031;49.758;6.120;2023-03-01T03:21:34;-4.60;99.90
7972;DHT22;4031;49.758;6.120;2023-03-01T03:24:01;-4.60;99.90
7972;DHT22;4031;49.758;6.120;2023-03-01T03:26:27;-4.40;99.90
7972;DHT22;4031;49.758;6.120;2023-03-01T03:28:52;-4.40;99.90
7972;DHT22;4031;49.758;6.120;2023-03-01T03:31:18;-4.30;99.90
7972;DHT22;4031;49.758;6.120;2023-03-01T03:33:44;-4.20;99.90
7972;DHT22;4031;49.758;6.120;2023-03-01T03:36:14;-3.90;99.90
7972;DHT22;4031;49.758;6.120;2023-03-01T03:38:43;-3.70;99.90
7972;DHT22;4031;49.758;6.120;2023-03-01T03:41:11;-3.60;99.90
7972;DHT22;4031;49.758;6.120;2023-03-01T03:43:39;-3.50;99.90
7972;DHT22;4031;49.758;6.120;2023-03-01T03:46:06;-3.50;99.90
7972;DHT22;4031;49.758;6.120;2023-03-01T03:48:50;-3.50;99.90
7972;DHT22;4031;49.758;6.120;2023-03-01T03:51:17;-3.50;99.90
7972;DHT22;4031;49.758;6.120;2023-03-01T03:53:44;-3.40;99.90
7972;DHT22;4031;49.758;6.120;2023-03-01T03:56:11;-3.30;99.90
7972;DHT22;4031;49.758;6.120;2023-03-01T03:58:37;-3.20;99.90
7972;DHT22;4031;49.758;6.120;2023-03-01T04:01:03;-3.20;99.90
7972;DHT22;4031;49.758;6.120;2023-03-01T04:03:31;-3.20;99.90
7972;DHT22;4031;49.758;6.120;2023-03-01T04:06:00;-3.10;99.90
7972;DHT22;4031;49.758;6.120;2023-03-01T04:08:27;-3.00;99.90
7972;DHT22;4031;49.758;6.120;2023-03-01T04:11:01;-2.90;99.90
7972;DHT22;4031;49.758;6.120;2023-03-01T04:13:47;-2.80;99.90
7972;DHT22;4031;49.758;6.120;2023-03-01T04:16:13;-2.80;99.90
7972;DHT22;4031;49.758;6.120;2023-03-01T04:18:39;-2.70;99.90
7972;DHT22;4031;49.758;6.120;2023-03-01T04:21:05;-2.70;99.90
7972;DHT22;4031;49.758;6.120;2023-03-01T04:23:30;-2.70;99.90
7972;DHT22;4031;49.758;6.120;2023-03-01T04:25:57;-2.80;99.90
7972;DHT22;4031;49.758;6.120;2023-03-01T04:28:32;-2.90;99.90
7972;DHT22;4031;49.758;6.120;2023-03-01T04:31:03;-2.90;99.90
7972;DHT22;4031;49.758;6.120;2023-03-01T04:33:39;-2.90;99.90
7972;DHT22;4031;49.758;6.120;2023-03-01T04:36:06;-2.90;99.90
7972;DHT22;4031;49.758;6.120;2023-03-01T04:38:34;-2.90;99.90
7972;DHT22;4031;49.758;6.120;2023-03-01T04:41:08;-2.90;99.90
7972;DHT22;4031;49.758;6.120;2023-03-01T04:43:34;-3.00;99.90
7972;DHT22;4031;49.758;6.120;2023-03-01T04:46:02;-3.00;99.90
7972;DHT22;4031;49.758;6.120;2023-03-01T04:48:30;-3.00;99.90
7972;DHT22;4031;49.758;6.120;2023-03-01T04:50:58;-3.10;99.90
7972;DHT22;4031;49.758;6.120;2023-03-01T04:53:24;-3.10;99.90
7972;DHT22;4031;49.758;6.120;2023-03-01T04:55:50;-3.10;99.90
7972;DHT22;4031;49.758;6.120;2023-03-01T04:58:16;-3.20;99.90
7972;DHT22;4031;49.758;6.120;2023-03-01T05:00:42;-3.20;99.90
7972;DHT22;4031;49.758;6.120;2023-03-01T05:03:08;-3.20;99.90
7972;DHT22;4031;49.758;6.120;2023-03-01T05:05:38;-3.10;99.90
7972;DHT22;4031;49.758;6.120;2023-03-01T05:08:06;-3.10;99.90
7972;DHT22;4031;49.758;6.120;2023-03-01T05:10:34;-3.00;99.90
7972;DHT22;4031;49.758;6.120;2023-03-01T05:13:02;-3.00;99.90
7972;DHT22;4031;49.758;6.120;2023-03-01T05:15:30;-2.90;99.90
7972;DHT22;4031;49.758;6.120;2023-03-01T05:17:58;-3.00;99.90
7972;DHT22;4031;49.758;6.120;2023-03-01T05:20:25;-3.00;99.90
7972;DHT22;4031;49.758;6.120;2023-03-01T05:22:56;-3.10;99.90
7972;DHT22;4031;49.758;6.120;2023-03-01T05:25:24;-3.20;99.90
7972;DHT22;4031;49.758;6.120;2023-03-01T05:27:50;-3.30;99.90
7972;DHT22;4031;49.758;6.120;2023-03-01T05:30:17;-3.20;99.90
7972;DHT22;4031;49.758;6.120;2023-03-01T05:32:49;-3.30;99.90
7972;DHT22;4031;49.758;6.120;2023-03-01T05:35:21;-3.40;99.90
7972;DHT22;4031;49.758;6.120;2023-03-01T05:37:48;-3.40;99.90
7972;DHT22;4031;49.758;6.120;2023-03-01T05:40:16;-3.40;99.90
7972;DHT22;4031;49.758;6.120;2023-03-01T05:42:53;-3.40;99.90
7972;DHT22;4031;49.758;6.120;2023-03-01T05:45:21;-3.50;99.90
7972;DHT22;4031;49.758;6.120;2023-03-01T05:47:49;-3.50;99.90
7972;DHT22;4031;49.758;6.120;2023-03-01T05:50:18;-3.50;99.90
7972;DHT22;4031;49.758;6.120;2023-03-01T05:52:47;-3.50;99.90
7972;DHT22;4031;49.758;6.120;2023-03-01T05:55:15;-3.40;99.90
7972;DHT22;4031;49.758;6.120;2023-03-01T05:57:45;-3.40;99.90
7972;DHT22;4031;49.758;6.120;2023-03-01T06:00:12;-3.30;99.90
7972;DHT22;4031;49.758;6.120;2023-03-01T06:02:38;-3.20;99.90
7972;DHT22;4031;49.758;6.120;2023-03-01T06:05:06;-3.10;99.90
7972;DHT22;4031;49.758;6.120;2023-03-01T06:07:33;-3.10;99.90
7972;DHT22;4031;49.758;6.120;2023-03-01T06:09:58;-3.00;99.90
7972;DHT22;4031;49.758;6.120;2023-03-01T06:12:24;-3.00;99.90
7972;DHT22;4031;49.758;6.120;2023-03-01T06:14:50;-3.00;99.90
7972;DHT22;4031;49.758;6.120;2023-03-01T06:17:15;-3.00;99.90
7972;DHT22;4031;49.758;6.120;2023-03-01T06:19:41;-2.90;99.90
7972;DHT22;4031;49.758;6.120;2023-03-01T06:22:07;-3.00;99.90
7972;DHT22;4031;49.758;6.120;2023-03-01T06:24:33;-2.90;99.90
7972;DHT22;4031;49.758;6.120;2023-03-01T06:26:59;-3.00;99.90
7972;DHT22;4031;49.758;6.120;2023-03-01T06:29:25;-3.00;99.90
7972;DHT22;4031;49.758;6.120;2023-03-01T06:31:51;-3.10;99.90
7972;DHT22;4031;49.758;6.120;2023-03-01T06:34:17;-3.10;99.90
7972;DHT22;4031;49.758;6.120;2023-03-01T06:36:42;-3.20;99.90
7972;DHT22;4031;49.758;6.120;2023-03-01T06:39:08;-3.20;99.90
7972;DHT22;4031;49.758;6.120;2023-03-01T06:41:34;-3.10;99.90
7972;DHT22;4031;49.758;6.120;2023-03-01T06:44:00;-3.10;99.90
7972;DHT22;4031;49.758;6.120;2023-03-01T06:46:26;-3.10;99.90
7972;DHT22;4031;49.758;6.120;2023-03-01T06:48:51;-3.10;99.90
7972;DHT22;4031;49.758;6.120;2023-03-01T06:51:17;-3.10;99.90
7972;DHT22;4031;49.758;6.120;2023-03-01T06:53:43;-3.00;99.90
7972;DHT22;4031;49.758;6.120;2023-03-01T06:56:08;-2.90;99.90
7972;DHT22;4031;49.758;6.120;2023-03-01T06:58:34;-2.80;99.90
7972;DHT22;4031;49.758;6.120;2023-03-01T07:01:00;-2.80;99.90
7972;DHT22;4031;49.758;6.120;2023-03-01T07:03:31;-2.70;99.90
7972;DHT22;4031;49.758;6.120;2023-03-01T07:05:56;-2.60;99.90
7972;DHT22;4031;49.758;6.120;2023-03-01T07:08:22;-2.40;99.90
7972;DHT22;4031;49.758;6.120;2023-03-01T07:10:48;-2.40;99.90
7972;DHT22;4031;49.758;6.120;2023-03-01T07:13:13;-2.30;99.90
7972;DHT22;4031;49.758;6.120;2023-03-01T07:15:40;-2.20;99.90
7972;DHT22;4031;49.758;6.120;2023-03-01T07:18:05;-2.20;99.90
7972;DHT22;4031;49.758;6.120;2023-03-01T07:20:31;-2.10;99.90
7972;DHT22;4031;49.758;6.120;2023-03-01T07:22:57;-2.00;99.90
7972;DHT22;4031;49.758;6.120;2023-03-01T07:25:24;-2.00;99.90
7972;DHT22;4031;49.758;6.120;2023-03-01T07:27:53;-1.90;99.90
7972;DHT22;4031;49.758;6.120;2023-03-01T07:30:20;-1.90;99.90
7972;DHT22;4031;49.758;6.120;2023-03-01T07:32:46;-1.80;99.90
7972;DHT22;4031;49.758;6.120;2023-03-01T07:35:12;-1.70;99.90
7972;DHT22;4031;49.758;6.120;2023-03-01T07:37:38;-1.70;99.90
7972;DHT22;4031;49.758;6.120;2023-03-01T07:40:04;-1.70;99.90
7972;DHT22;4031;49.758;6.120;2023-03-01T07:42:30;-1.60;99.90
7972;DHT22;4031;49.758;6.120;2023-03-01T07:44:56;-1.60;99.90
7972;DHT22;4031;49.758;6.120;2023-03-01T07:47:21;-1.50;99.90
7972;DHT22;4031;49.758;6.120;2023-03-01T07:49:47;-1.50;99.90
7972;DHT22;4031;49.758;6.120;2023-03-01T07:52:13;-1.40;99.90
7972;DHT22;4031;49.758;6.120;2023-03-01T07:54:39;-1.40;99.90
7972;DHT22;4031;49.758;6.120;2023-03-01T07:57:04;-1.30;99.90
7972;DHT22;4031;49.758;6.120;2023-03-01T07:59:30;-1.20;99.90
7972;DHT22;4031;49.758;6.120;2023-03-01T08:01:57;-1.10;99.90
7972;DHT22;4031;49.758;6.120;2023-03-01T08:04:23;-0.90;99.90
7972;DHT22;4031;49.758;6.120;2023-03-01T08:06:50;-0.60;99.90
7972;DHT22;4031;49.758;6.120;2023-03-01T08:09:16;-0.40;99.90
7972;DHT22;4031;49.758;6.120;2023-03-01T08:11:42;-0.10;99.90
7972;DHT22;4031;49.758;6.120;2023-03-01T08:14:08;0.10;99.90
7972;DHT22;4031;49.758;6.120;2023-03-01T08:16:35;0.50;99.90
7972;DHT22;4031;49.758;6.120;2023-03-01T08:19:05;0.60;99.90
7972;DHT22;4031;49.758;6.120;2023-03-01T08:21:35;0.60;99.90
7972;DHT22;4031;49.758;6.120;2023-03-01T08:24:02;0.60;99.90
7972;DHT22;4031;49.758;6.120;2023-03-01T08:26:29;0.70;99.90
7972;DHT22;4031;49.758;6.120;2023-03-01T08:28:55;0.80;99.90
7972;DHT22;4031;49.758;6.120;2023-03-01T08:31:31;1.10;99.90
7972;DHT22;4031;49.758;6.120;2023-03-01T08:34:00;1.30;99.90
7972;DHT22;4031;49.758;6.120;2023-03-01T08:36:29;1.50;99.90
7972;DHT22;4031;49.758;6.120;2023-03-01T08:38:56;1.60;99.90
7972;DHT22;4031;49.758;6.120;2023-03-01T08:41:22;1.90;99.90
7972;DHT22;4031;49.758;6.120;2023-03-01T08:43:48;2.10;99.90
7972;DHT22;4031;49.758;6.120;2023-03-01T08:46:14;2.00;99.90
7972;DHT22;4031;49.758;6.120;2023-03-01T08:48:40;2.00;99.90
7972;DHT22;4031;49.758;6.120;2023-03-01T08:51:09;2.20;99.90
7972;DHT22;4031;49.758;6.120;2023-03-01T08:53:36;2.20;99.90
7972;DHT22;4031;49.758;6.120;2023-03-01T08:56:03;2.00;99.90
7972;DHT22;4031;49.758;6.120;2023-03-01T08:58:29;1.80;99.90
7972;DHT22;4031;49.758;6.120;2023-03-01T09:00:55;1.60;99.90
7972;DHT22;4031;49.758;6.120;2023-03-01T09:03:22;1.50;99.90
7972;DHT22;4031;49.758;6.120;2023-03-01T09:05:49;1.60;99.90
7972;DHT22;4031;49.758;6.120;2023-03-01T09:08:16;1.60;99.90
7972;DHT22;4031;49.758;6.120;2023-03-01T09:10:42;1.70;99.90
7972;DHT22;4031;49.758;6.120;2023-03-01T09:13:08;1.60;99.90
7972;DHT22;4031;49.758;6.120;2023-03-01T09:15:36;1.60;99.90
7972;DHT22;4031;49.758;6.120;2023-03-01T09:18:03;1.50;99.90
7972;DHT22;4031;49.758;6.120;2023-03-01T09:20:30;1.60;99.90
7972;DHT22;4031;49.758;6.120;2023-03-01T09:22:57;1.80;99.90
7972;DHT22;4031;49.758;6.120;2023-03-01T09:25:23;2.00;99.90
7972;DHT22;4031;49.758;6.120;2023-03-01T09:27:53;2.10;99.90
7972;DHT22;4031;49.758;6.120;2023-03-01T09:30:20;2.10;99.90
7972;DHT22;4031;49.758;6.120;2023-03-01T09:32:46;2.40;99.90
7972;DHT22;4031;49.758;6.120;2023-03-01T09:35:12;2.40;99.90
7972;DHT22;4031;49.758;6.120;2023-03-01T09:37:38;2.20;99.90
7972;DHT22;4031;49.758;6.120;2023-03-01T09:40:12;2.20;99.90
7972;DHT22;4031;49.758;6.120;2023-03-01T09:42:53;2.20;99.90
7972;DHT22;4031;49.758;6.120;2023-03-01T09:45:33;2.40;99.90
7972;DHT22;4031;49.758;6.120;2023-03-01T09:48:02;2.70;99.90
7972;DHT22;4031;49.758;6.120;2023-03-01T09:50:38;2.90;99.90
7972;DHT22;4031;49.758;6.120;2023-03-01T09:53:20;2.90;99.90
7972;DHT22;4031;49.758;6.120;2023-03-01T09:55:55;3.10;99.90
7972;DHT22;4031;49.758;6.120;2023-03-01T10:04:12;2.90;99.90
7972;DHT22;4031;49.758;6.120;2023-03-01T10:09:41;3.80;99.90
7972;DHT22;4031;49.758;6.120;2023-03-01T10:12:14;3.90;99.90
7972;DHT22;4031;49.758;6.120;2023-03-01T10:14:44;4.10;99.90
7972;DHT22;4031;49.758;6.120;2023-03-01T10:17:27;4.30;99.90
7972;DHT22;4031;49.758;6.120;2023-03-01T10:20:22;4.90;99.90
7972;DHT22;4031;49.758;6.120;2023-03-01T10:22:50;5.50;99.90
7972;DHT22;4031;49.758;6.120;2023-03-01T10:25:36;6.30;99.90
7972;DHT22;4031;49.758;6.120;2023-03-01T10:28:35;7.10;99.90
7972;DHT22;4031;49.758;6.120;2023-03-01T10:30:58;7.30;99.90
7972;DHT22;4031;49.758;6.120;2023-03-01T10:33:30;8.10;99.90
7972;DHT22;4031;49.758;6.120;2023-03-01T10:35:58;9.30;99.90
7972;DHT22;4031;49.758;6.120;2023-03-01T10:38:24;10.60;99.90
7972;DHT22;4031;49.758;6.120;2023-03-01T10:40:58;11.60;99.90
7972;DHT22;4031;49.758;6.120;2023-03-01T10:43:45;12.40;99.90
7972;DHT22;4031;49.758;6.120;2023-03-01T10:49:18;13.00;99.90
7972;DHT22;4031;49.758;6.120;2023-03-01T10:51:48;12.90;99.90
7972;DHT22;4031;49.758;6.120;2023-03-01T10:54:28;13.00;99.90
7972;DHT22;4031;49.758;6.120;2023-03-01T10:56:57;13.20;99.90
7972;DHT22;4031;49.758;6.120;2023-03-01T10:59:30;13.40;99.90
7972;DHT22;4031;49.758;6.120;2023-03-01T11:05:13;13.30;99.90
7972;DHT22;4031;49.758;6.120;2023-03-01T11:07:52;13.00;99.90
7972;DHT22;4031;49.758;6.120;2023-03-01T11:10:29;12.40;99.90
7972;DHT22;4031;49.758;6.120;2023-03-01T11:13:26;12.70;99.90
7972;DHT22;4031;49.758;6.120;2023-03-01T11:16:05;12.40;99.90
7972;DHT22;4031;49.758;6.120;2023-03-01T11:18:33;12.50;98.60
7972;DHT22;4031;49.758;6.120;2023-03-01T11:20:59;12.50;99.90
7972;DHT22;4031;49.758;6.120;2023-03-01T11:23:28;12.30;99.80
7972;DHT22;4031;49.758;6.120;2023-03-01T11:25:56;12.60;98.10
7972;DHT22;4031;49.758;6.120;2023-03-01T11:28:25;12.70;99.90
7972;DHT22;4031;49.758;6.120;2023-03-01T11:31:03;12.70;98.70
7972;DHT22;4031;49.758;6.120;2023-03-01T11:42:28;12.30;94.40
7972;DHT22;4031;49.758;6.120;2023-03-01T11:45:02;12.10;96.20
7972;DHT22;4031;49.758;6.120;2023-03-01T11:47:58;12.00;95.20
7972;DHT22;4031;49.758;6.120;2023-03-01T11:53:31;11.30;91.40
7972;DHT22;4031;49.758;6.120;2023-03-01T11:56:06;10.80;91.70
7972;DHT22;4031;49.758;6.120;2023-03-01T12:04:49;10.60;92.00
7972;DHT22;4031;49.758;6.120;2023-03-01T12:10:40;11.10;94.00
7972;DHT22;4031;49.758;6.120;2023-03-01T12:13:23;11.70;93.30
7972;DHT22;4031;49.758;6.120;2023-03-01T12:19:01;11.50;92.50
7972;DHT22;4031;49.758;6.120;2023-03-01T12:27:07;11.20;92.90
7972;DHT22;4031;49.758;6.120;2023-03-01T12:38:42;9.20;92.70
7972;DHT22;4031;49.758;6.120;2023-03-01T12:44:10;10.20;92.90
7972;DHT22;4031;49.758;6.120;2023-03-01T12:49:55;10.20;93.10
7972;DHT22;4031;49.758;6.120;2023-03-01T12:52:47;10.50;93.70
7972;DHT22;4031;49.758;6.120;2023-03-01T12:55:38;10.70;93.30
7972;DHT22;4031;49.758;6.120;2023-03-01T12:58:35;10.80;93.50
7972;DHT22;4031;49.758;6.120;2023-03-01T13:01:19;10.50;91.00
7972;DHT22;4031;49.758;6.120;2023-03-01T13:06:47;10.60;91.60
7972;DHT22;4031;49.758;6.120;2023-03-01T13:15:25;11.40;93.80
7972;DHT22;4031;49.758;6.120;2023-03-01T13:18:42;11.10;91.70
7972;DHT22;4031;49.758;6.120;2023-03-01T13:20:50;10.90;89.40
7972;DHT22;4031;49.758;6.120;2023-03-01T13:26:07;11.40;91.70
7972;DHT22;4031;49.758;6.120;2023-03-01T13:28:52;11.40;89.20
7972;DHT22;4031;49.758;6.120;2023-03-01T13:41:57;11.70;86.60
7972;DHT22;4031;49.758;6.120;2023-03-01T13:44:37;11.50;88.40
7972;DHT22;4031;49.758;6.120;2023-03-01T13:58:14;12.80;88.90
7972;DHT22;4031;49.758;6.120;2023-03-01T14:01:03;13.20;90.00
7972;DHT22;4031;49.758;6.120;2023-03-01T14:03:32;13.00;87.20
7972;DHT22;4031;49.758;6.120;2023-03-01T14:06:13;12.60;84.20
7972;DHT22;4031;49.758;6.120;2023-03-01T14:08:44;11.70;84.40
7972;DHT22;4031;49.758;6.120;2023-03-01T14:14:29;10.90;82.90
7972;DHT22;4031;49.758;6.120;2023-03-01T14:17:31;10.80;83.70
7972;DHT22;4031;49.758;6.120;2023-03-01T14:20:30;11.00;84.00
7972;DHT22;4031;49.758;6.120;2023-03-01T14:23:02;10.80;84.70
7972;DHT22;4031;49.758;6.120;2023-03-01T14:25:36;11.30;83.70
7972;DHT22;4031;49.758;6.120;2023-03-01T14:28:25;11.80;85.00
7972;DHT22;4031;49.758;6.120;2023-03-01T14:30:55;12.20;86.80
7972;DHT22;4031;49.758;6.120;2023-03-01T14:38:42;13.30;82.10
7972;DHT22;4031;49.758;6.120;2023-03-01T14:41:15;13.00;81.90
7972;DHT22;4031;49.758;6.120;2023-03-01T14:43:45;12.70;81.00
7972;DHT22;4031;49.758;6.120;2023-03-01T14:48:51;11.80;78.50
7972;DHT22;4031;49.758;6.120;2023-03-01T14:51:18;11.60;80.30
7972;DHT22;4031;49.758;6.120;2023-03-01T14:53:44;11.60;79.80
7972;DHT22;4031;49.758;6.120;2023-03-01T14:56:15;11.10;80.10
7972;DHT22;4031;49.758;6.120;2023-03-01T14:58:44;10.80;79.20
7972;DHT22;4031;49.758;6.120;2023-03-01T15:01:15;10.90;80.40
7972;DHT22;4031;49.758;6.120;2023-03-01T15:03:44;11.30;82.60
7972;DHT22;4031;49.758;6.120;2023-03-01T15:06:15;11.20;80.10
7972;DHT22;4031;49.758;6.120;2023-03-01T15:08:46;10.90;81.40
7972;DHT22;4031;49.758;6.120;2023-03-01T15:11:24;11.00;79.60
7972;DHT22;4031;49.758;6.120;2023-03-01T15:13:51;11.00;79.40
7972;DHT22;4031;49.758;6.120;2023-03-01T15:16:21;11.40;80.70
7972;DHT22;4031;49.758;6.120;2023-03-01T15:18:51;11.80;82.20
7972;DHT22;4031;49.758;6.120;2023-03-01T15:21:23;11.90;81.40
7972;DHT22;4031;49.758;6.120;2023-03-01T15:26:47;11.50;80.30
7972;DHT22;4031;49.758;6.120;2023-03-01T15:29:28;11.30;79.20
7972;DHT22;4031;49.758;6.120;2023-03-01T15:34:52;11.20;81.70
7972;DHT22;4031;49.758;6.120;2023-03-01T15:37:53;11.60;78.30
7972;DHT22;4031;49.758;6.120;2023-03-01T15:40:23;11.40;78.10
7972;DHT22;4031;49.758;6.120;2023-03-01T15:42:57;11.20;79.80
7972;DHT22;4031;49.758;6.120;2023-03-01T15:45:27;11.10;79.00
7972;DHT22;4031;49.758;6.120;2023-03-01T15:47:58;10.80;79.60
7972;DHT22;4031;49.758;6.120;2023-03-01T15:53:00;10.40;78.20
7972;DHT22;4031;49.758;6.120;2023-03-01T15:55:36;10.40;79.00
7972;DHT22;4031;49.758;6.120;2023-03-01T15:58:23;10.30;78.90
7972;DHT22;4031;49.758;6.120;2023-03-01T16:00:50;10.30;78.90
7972;DHT22;4031;49.758;6.120;2023-03-01T16:03:22;10.40;78.80
7972;DHT22;4031;49.758;6.120;2023-03-01T16:05:49;10.50;78.10
7972;DHT22;4031;49.758;6.120;2023-03-01T16:08:16;10.40;78.20
7972;DHT22;4031;49.758;6.120;2023-03-01T16:10:43;10.40;77.60
7972;DHT22;4031;49.758;6.120;2023-03-01T16:13:10;10.30;76.80
7972;DHT22;4031;49.758;6.120;2023-03-01T16:15:39;10.00;76.00
7972;DHT22;4031;49.758;6.120;2023-03-01T16:18:05;9.70;77.50
7972;DHT22;4031;49.758;6.120;2023-03-01T16:20:33;9.30;78.30
7972;DHT22;4031;49.758;6.120;2023-03-01T16:23:00;8.90;79.60
7972;DHT22;4031;49.758;6.120;2023-03-01T16:25:28;8.40;80.20
7972;DHT22;4031;49.758;6.120;2023-03-01T16:27:55;8.00;81.80
7972;DHT22;4031;49.758;6.120;2023-03-01T16:30:22;7.60;82.10
7972;DHT22;4031;49.758;6.120;2023-03-01T16:32:49;7.40;83.00
7972;DHT22;4031;49.758;6.120;2023-03-01T16:35:17;7.00;84.60
7972;DHT22;4031;49.758;6.120;2023-03-01T16:37:46;6.70;82.00
7972;DHT22;4031;49.758;6.120;2023-03-01T16:40:18;6.60;84.80
7972;DHT22;4031;49.758;6.120;2023-03-01T16:42:50;6.40;83.90
7972;DHT22;4031;49.758;6.120;2023-03-01T16:45:17;6.30;86.30
7972;DHT22;4031;49.758;6.120;2023-03-01T16:47:43;6.10;87.80
7972;DHT22;4031;49.758;6.120;2023-03-01T16:50:09;5.90;89.50
7972;DHT22;4031;49.758;6.120;2023-03-01T16:52:36;5.70;88.80
7972;DHT22;4031;49.758;6.120;2023-03-01T16:55:03;5.60;90.30
7972;DHT22;4031;49.758;6.120;2023-03-01T16:57:30;5.40;90.10
7972;DHT22;4031;49.758;6.120;2023-03-01T16:59:59;5.40;87.80
7972;DHT22;4031;49.758;6.120;2023-03-01T17:02:25;5.30;89.70
7972;DHT22;4031;49.758;6.120;2023-03-01T17:04:52;5.10;90.80
7972;DHT22;4031;49.758;6.120;2023-03-01T17:07:19;4.90;90.90
7972;DHT22;4031;49.758;6.120;2023-03-01T17:09:45;4.70;92.00
7972;DHT22;4031;49.758;6.120;2023-03-01T17:12:15;4.50;91.60
7972;DHT22;4031;49.758;6.120;2023-03-01T17:14:41;4.50;92.40
7972;DHT22;4031;49.758;6.120;2023-03-01T17:17:09;4.30;93.40
7972;DHT22;4031;49.758;6.120;2023-03-01T17:19:36;4.10;94.20
7972;DHT22;4031;49.758;6.120;2023-03-01T17:22:09;4.00;94.80
7972;DHT22;4031;49.758;6.120;2023-03-01T17:24:39;3.90;96.10
7972;DHT22;4031;49.758;6.120;2023-03-01T17:27:06;3.70;95.50
7972;DHT22;4031;49.758;6.120;2023-03-01T17:29:33;3.70;96.80
7972;DHT22;4031;49.758;6.120;2023-03-01T17:31:59;3.50;97.10
7972;DHT22;4031;49.758;6.120;2023-03-01T17:34:25;3.30;98.10
7972;DHT22;4031;49.758;6.120;2023-03-01T17:36:51;3.10;99.00
7972;DHT22;4031;49.758;6.120;2023-03-01T17:39:18;2.90;99.90
7972;DHT22;4031;49.758;6.120;2023-03-01T17:41:53;2.70;99.90
7972;DHT22;4031;49.758;6.120;2023-03-01T17:44:19;2.50;99.90
7972;DHT22;4031;49.758;6.120;2023-03-01T17:46:45;2.40;99.90
7972;DHT22;4031;49.758;6.120;2023-03-01T17:49:11;2.20;99.90
7972;DHT22;4031;49.758;6.120;2023-03-01T17:51:36;2.00;99.90
7972;DHT22;4031;49.758;6.120;2023-03-01T17:54:03;1.80;99.90
7972;DHT22;4031;49.758;6.120;2023-03-01T17:56:29;1.70;99.90
7972;DHT22;4031;49.758;6.120;2023-03-01T17:58:56;1.50;99.90
7972;DHT22;4031;49.758;6.120;2023-03-01T18:01:22;1.40;99.90
7972;DHT22;4031;49.758;6.120;2023-03-01T18:03:50;1.10;99.90
7972;DHT22;4031;49.758;6.120;2023-03-01T18:06:20;1.00;99.90
7972;DHT22;4031;49.758;6.120;2023-03-01T18:08:47;0.80;99.90
7972;DHT22;4031;49.758;6.120;2023-03-01T18:11:15;0.70;99.90
7972;DHT22;4031;49.758;6.120;2023-03-01T18:13:42;0.60;99.90
7972;DHT22;4031;49.758;6.120;2023-03-01T18:16:10;0.60;99.90
7972;DHT22;4031;49.758;6.120;2023-03-01T18:18:38;0.40;99.90
7972;DHT22;4031;49.758;6.120;2023-03-01T18:21:04;0.30;99.90
7972;DHT22;4031;49.758;6.120;2023-03-01T18:23:32;0.20;99.90
7972;DHT22;4031;49.758;6.120;2023-03-01T18:26:09;0.10;99.90
7972;DHT22;4031;49.758;6.120;2023-03-01T18:28:37;0.00;99.90